Thunderstorms From: 22-05-2018 15:00 Until: 23-05-2018 15:00 warning for: Thunderstorms Level: Yellow info button

Although rather usual in this region, locally or potentially dangerous phenomena are expected. (such as local winds, summer thunderstorms, rising streams or high waves) Be aware and pay attention to the latest weather updates, especially if you carry out activities exposed to weather or close to a stream or shoreline. 


Meteo18 Weather Cam more information Meteo18 Weather Cam


warning for Thunderstorms more information blitzortung!


Rain radar more information rain snow radar


Visit our other weather sites:

Template documentation
and downloads

And another site



Weather Underground History page Text

Daily Summary for April 16, 2017 Units:  Both    English   Metric
« Previous Day
Next Day »
Daily Weekly Monthly Yearly Custom
  High: Low: Average:
Temperature: TemperatureC °F /  -17.8 °C 6.7 °F /  -14.1 °C 10.4 °F /  -12 °C
Dew Point: DewpointC °F /  -17.8 °C 3.1 °F /  -16.1 °C 5.3 °F /  -14.8 °C
Humidity: Humidity % 53 % 72 %
Wind Speed: WindSpeedKMH mph /  0 km/h - 4.1 mph /  6.6 km/h
Wind Gust: WindSpeedGustKMH mph /  0 km/h - -
Wind:- - WNW
Pressure: PressurehPa in /  0 hPa 1023.6 in /  34659.1 hPa -
Precipitation: 0.0 in /  0 mm    
Historical Graphs
 
 
Tabular Data for April 16, 2017
Time Temperature Dew Point Pressure Wind Wind Speed Wind Gust Humidity Rainfall Rate (Hourly)
TemperatureC °F /  -17.8 °C DewpointC °F /  -17.8 °C PressurehPa in /  0 hPa Calm     Humidity % HourlyPrecipMM in /  0 mm
00:02 11.0 °F /  -11.7 °C 7.9 °F /  -13.4 °C 1023.6 in /  34659.1 hPa SW 4.8 mph /  7.7 km/h 11.3 mph /  18.2 km/h 81 % 0.0 in /  0 mm
00:12 11.0 °F /  -11.7 °C 7.9 °F /  -13.4 °C 1023.6 in /  34659.1 hPa SSW 3.2 mph /  5.1 km/h 12.9 mph /  20.8 km/h 81 % 0.0 in /  0 mm
00:17 11.0 °F /  -11.7 °C 7.9 °F /  -13.4 °C 1023.6 in /  34659.1 hPa SW 3.2 mph /  5.1 km/h 12.9 mph /  20.8 km/h 81 % 0.0 in /  0 mm
00:22 11.0 °F /  -11.7 °C 7.9 °F /  -13.4 °C 1023.6 in /  34659.1 hPa WSW 6.4 mph /  10.3 km/h 12.9 mph /  20.8 km/h 81 % 0.0 in /  0 mm
00:32 10.9 °F /  -11.7 °C 7.8 °F /  -13.4 °C 1023.6 in /  34659.1 hPa SW 4.8 mph /  7.7 km/h 11.3 mph /  18.2 km/h 81 % 0.0 in /  0 mm
00:42 10.9 °F /  -11.7 °C 7.6 °F /  -13.6 °C 1023.6 in /  34659.1 hPa SSW 1.6 mph /  2.6 km/h 9.7 mph /  15.6 km/h 80 % 0.0 in /  0 mm
00:47 10.8 °F /  -11.8 °C 7.5 °F /  -13.6 °C 1023.6 in /  34659.1 hPa SSW 1.6 mph /  2.6 km/h 6.4 mph /  10.3 km/h 80 % 0.0 in /  0 mm
00:52 10.7 °F /  -11.8 °C 7.6 °F /  -13.6 °C 1023.6 in /  34659.1 hPa SW 3.2 mph /  5.1 km/h 6.4 mph /  10.3 km/h 81 % 0.0 in /  0 mm
00:57 10.6 °F /  -11.9 °C 7.5 °F /  -13.6 °C 1023.6 in /  34659.1 hPa Calm   4.8 mph /  7.7 km/h 81 % 0.0 in /  0 mm
01:02 10.5 °F /  -11.9 °C 7.6 °F /  -13.6 °C 1023.9 in /  34669.3 hPa SE 1.6 mph /  2.6 km/h 4.8 mph /  7.7 km/h 82 % 0.0 in /  0 mm
01:07 10.4 °F /  -12 °C 7.5 °F /  -13.6 °C 1023.6 in /  34659.1 hPa West 6.4 mph /  10.3 km/h 6.4 mph /  10.3 km/h 82 % 0.0 in /  0 mm
01:12 10.4 °F /  -12 °C 7.6 °F /  -13.6 °C 1023.6 in /  34659.1 hPa WSW 4.8 mph /  7.7 km/h 8.0 mph /  12.9 km/h 83 % 0.0 in /  0 mm
01:17 10.5 °F /  -11.9 °C 7.7 °F /  -13.5 °C 1023.6 in /  34659.1 hPa West 4.8 mph /  7.7 km/h 9.7 mph /  15.6 km/h 83 % 0.0 in /  0 mm
01:22 10.6 °F /  -11.9 °C 7.7 °F /  -13.5 °C 1023.6 in /  34659.1 hPa West 4.8 mph /  7.7 km/h 11.3 mph /  18.2 km/h 82 % 0.0 in /  0 mm
01:27 10.6 °F /  -11.9 °C 7.7 °F /  -13.5 °C 1023.6 in /  34659.1 hPa West 6.4 mph /  10.3 km/h 14.5 mph /  23.3 km/h 82 % 0.0 in /  0 mm
01:32 10.6 °F /  -11.9 °C 7.7 °F /  -13.5 °C 1023.6 in /  34659.1 hPa WSW 11.3 mph /  18.2 km/h 14.5 mph /  23.3 km/h 82 % 0.0 in /  0 mm
01:37 10.7 °F /  -11.8 °C 7.8 °F /  -13.4 °C 1023.6 in /  34659.1 hPa West 4.8 mph /  7.7 km/h 14.5 mph /  23.3 km/h 82 % 0.0 in /  0 mm
01:42 10.7 °F /  -11.8 °C 7.8 °F /  -13.4 °C 1023.6 in /  34659.1 hPa WSW 4.8 mph /  7.7 km/h 12.9 mph /  20.8 km/h 82 % 0.0 in /  0 mm
01:47 10.7 °F /  -11.8 °C 7.8 °F /  -13.4 °C 1023.9 in /  34669.3 hPa West 1.6 mph /  2.6 km/h 12.9 mph /  20.8 km/h 82 % 0.0 in /  0 mm
01:52 10.7 °F /  -11.8 °C 7.8 °F /  -13.4 °C 1023.9 in /  34669.3 hPa WNW 9.7 mph /  15.6 km/h 9.7 mph /  15.6 km/h 82 % 0.0 in /  0 mm
01:57 10.8 °F /  -11.8 °C 7.9 °F /  -13.4 °C 1023.9 in /  34669.3 hPa WNW 8.0 mph /  12.9 km/h 17.7 mph /  28.5 km/h 82 % 0.0 in /  0 mm
02:02 11.0 °F /  -11.7 °C 7.9 °F /  -13.4 °C 1023.9 in /  34669.3 hPa WNW 17.7 mph /  28.5 km/h 17.7 mph /  28.5 km/h 81 % 0.0 in /  0 mm
02:07 10.9 °F /  -11.7 °C 8.1 °F /  -13.3 °C 1023.9 in /  34669.3 hPa West 9.7 mph /  15.6 km/h 17.7 mph /  28.5 km/h 83 % 0.0 in /  0 mm
02:12 10.7 °F /  -11.8 °C 8.3 °F /  -13.2 °C 1023.9 in /  34669.3 hPa West 9.7 mph /  15.6 km/h 17.7 mph /  28.5 km/h 85 % 0.0 in /  0 mm
02:17 10.6 °F /  -11.9 °C 8.4 °F /  -13.1 °C 1023.9 in /  34669.3 hPa WNW 8.0 mph /  12.9 km/h 17.7 mph /  28.5 km/h 86 % 0.0 in /  0 mm
02:22 10.4 °F /  -12 °C 8.2 °F /  -13.2 °C 1023.9 in /  34669.3 hPa WNW 6.4 mph /  10.3 km/h 12.9 mph /  20.8 km/h 86 % 0.0 in /  0 mm
02:27 10.4 °F /  -12 °C 8.3 °F /  -13.2 °C 1023.9 in /  34669.3 hPa West 8.0 mph /  12.9 km/h 12.9 mph /  20.8 km/h 87 % 0.0 in /  0 mm
02:32 10.4 °F /  -12 °C 8.3 °F /  -13.2 °C 1023.9 in /  34669.3 hPa NW 6.4 mph /  10.3 km/h 11.3 mph /  18.2 km/h 87 % 0.0 in /  0 mm
02:37 10.4 °F /  -12 °C 8.2 °F /  -13.2 °C 1023.9 in /  34669.3 hPa WNW 4.8 mph /  7.7 km/h 12.9 mph /  20.8 km/h 86 % 0.0 in /  0 mm
02:42 10.4 °F /  -12 °C 8.2 °F /  -13.2 °C 1023.9 in /  34669.3 hPa WSW 8.0 mph /  12.9 km/h 12.9 mph /  20.8 km/h 86 % 0.0 in /  0 mm
02:47 10.4 °F /  -12 °C 8.2 °F /  -13.2 °C 1023.9 in /  34669.3 hPa West 6.4 mph /  10.3 km/h 16.1 mph /  25.9 km/h 86 % 0.0 in /  0 mm
02:57 10.3 °F /  -12.1 °C 8.2 °F /  -13.2 °C 1023.9 in /  34669.3 hPa WNW 4.8 mph /  7.7 km/h 16.1 mph /  25.9 km/h 87 % 0.0 in /  0 mm
03:02 10.2 °F /  -12.1 °C 8.1 °F /  -13.3 °C 1023.9 in /  34669.3 hPa WNW 3.2 mph /  5.1 km/h 14.5 mph /  23.3 km/h 87 % 0.0 in /  0 mm
03:12 10.2 °F /  -12.1 °C 8.3 °F /  -13.2 °C 1023.9 in /  34669.3 hPa West 1.6 mph /  2.6 km/h 9.7 mph /  15.6 km/h 88 % 0.0 in /  0 mm
03:17 10.2 °F /  -12.1 °C 8.3 °F /  -13.2 °C 1023.9 in /  34669.3 hPa WNW 1.6 mph /  2.6 km/h 6.4 mph /  10.3 km/h 88 % 0.0 in /  0 mm
03:22 10.2 °F /  -12.1 °C 8.1 °F /  -13.3 °C 1023.9 in /  34669.3 hPa West 4.8 mph /  7.7 km/h 9.7 mph /  15.6 km/h 87 % 0.0 in /  0 mm
03:32 10.2 °F /  -12.1 °C 8.1 °F /  -13.3 °C 1023.9 in /  34669.3 hPa Calm   12.9 mph /  20.8 km/h 87 % 0.0 in /  0 mm
03:37 10.2 °F /  -12.1 °C 8.1 °F /  -13.3 °C 1023.9 in /  34669.3 hPa WNW 4.8 mph /  7.7 km/h 12.9 mph /  20.8 km/h 87 % 0.0 in /  0 mm
03:42 10.2 °F /  -12.1 °C 8.1 °F /  -13.3 °C 1023.9 in /  34669.3 hPa WNW 9.7 mph /  15.6 km/h 9.7 mph /  15.6 km/h 87 % 0.0 in /  0 mm
03:47 10.2 °F /  -12.1 °C 8.1 °F /  -13.3 °C 1023.6 in /  34659.1 hPa WNW 1.6 mph /  2.6 km/h 9.7 mph /  15.6 km/h 87 % 0.0 in /  0 mm
03:52 10.2 °F /  -12.1 °C 8.1 °F /  -13.3 °C 1023.6 in /  34659.1 hPa NW 3.2 mph /  5.1 km/h 9.7 mph /  15.6 km/h 87 % 0.0 in /  0 mm
03:57 10.1 °F /  -12.2 °C 8.2 °F /  -13.2 °C 1023.6 in /  34659.1 hPa NW 4.8 mph /  7.7 km/h 9.7 mph /  15.6 km/h 88 % 0.0 in /  0 mm
04:02 10.1 °F /  -12.2 °C 8.2 °F /  -13.2 °C 1023.9 in /  34669.3 hPa NW 4.8 mph /  7.7 km/h 9.7 mph /  15.6 km/h 88 % 0.0 in /  0 mm
04:12 9.9 °F /  -12.3 °C 8.0 °F /  -13.3 °C 1023.6 in /  34659.1 hPa WNW 1.6 mph /  2.6 km/h 9.7 mph /  15.6 km/h 88 % 0.0 in /  0 mm
04:17 9.9 °F /  -12.3 °C 8.2 °F /  -13.2 °C 1023.9 in /  34669.3 hPa Calm   8.0 mph /  12.9 km/h 89 % 0.0 in /  0 mm
04:22 9.8 °F /  -12.3 °C 8.1 °F /  -13.3 °C 1023.6 in /  34659.1 hPa WNW 1.6 mph /  2.6 km/h 8.0 mph /  12.9 km/h 89 % 0.0 in /  0 mm
04:27 9.8 °F /  -12.3 °C 8.2 °F /  -13.2 °C 1023.9 in /  34669.3 hPa West 3.2 mph /  5.1 km/h 8.0 mph /  12.9 km/h 90 % 0.0 in /  0 mm
04:32 9.7 °F /  -12.4 °C 8.1 °F /  -13.3 °C 1023.9 in /  34669.3 hPa WNW 3.2 mph /  5.1 km/h 8.0 mph /  12.9 km/h 90 % 0.0 in /  0 mm
04:37 9.7 °F /  -12.4 °C 8.1 °F /  -13.3 °C 1023.9 in /  34669.3 hPa West 1.6 mph /  2.6 km/h 8.0 mph /  12.9 km/h 90 % 0.0 in /  0 mm
04:42 9.7 °F /  -12.4 °C 8.1 °F /  -13.3 °C 1023.9 in /  34669.3 hPa NW 3.2 mph /  5.1 km/h 16.1 mph /  25.9 km/h 90 % 0.0 in /  0 mm
04:47 9.6 °F /  -12.4 °C 8.0 °F /  -13.3 °C 1023.9 in /  34669.3 hPa NW 8.0 mph /  12.9 km/h 16.1 mph /  25.9 km/h 90 % 0.0 in /  0 mm
04:52 9.6 °F /  -12.4 °C 8.0 °F /  -13.3 °C 1023.9 in /  34669.3 hPa NNW 8.0 mph /  12.9 km/h 16.1 mph /  25.9 km/h 90 % 0.0 in /  0 mm
04:57 9.2 °F /  -12.7 °C 6.8 °F /  -14 °C 1024.3 in /  34682.8 hPa NNW 9.7 mph /  15.6 km/h 16.1 mph /  25.9 km/h 85 % 0.0 in /  0 mm
05:02 9.1 °F /  -12.7 °C 6.4 °F /  -14.2 °C 1023.9 in /  34669.3 hPa NNW 3.2 mph /  5.1 km/h 14.5 mph /  23.3 km/h 83 % 0.0 in /  0 mm
05:12 9.0 °F /  -12.8 °C 6.1 °F /  -14.4 °C 1024.3 in /  34682.8 hPa Calm   14.5 mph /  23.3 km/h 82 % 0.0 in /  0 mm
05:17 9.0 °F /  -12.8 °C 6.1 °F /  -14.4 °C 1023.9 in /  34669.3 hPa North 1.6 mph /  2.6 km/h 8.0 mph /  12.9 km/h 82 % 0.0 in /  0 mm
05:22 8.9 °F /  -12.8 °C 6.0 °F /  -14.4 °C 1024.3 in /  34682.8 hPa Calm   8.0 mph /  12.9 km/h 82 % 0.0 in /  0 mm
05:27 8.9 °F /  -12.8 °C 6.0 °F /  -14.4 °C 1024.3 in /  34682.8 hPa Calm   6.4 mph /  10.3 km/h 82 % 0.0 in /  0 mm
05:32 8.8 °F /  -12.9 °C 5.9 °F /  -14.5 °C 1024.3 in /  34682.8 hPa NW 3.2 mph /  5.1 km/h 4.8 mph /  7.7 km/h 82 % 0.0 in /  0 mm
05:42 8.8 °F /  -12.9 °C 5.9 °F /  -14.5 °C 1023.9 in /  34669.3 hPa WNW 3.2 mph /  5.1 km/h 4.8 mph /  7.7 km/h 82 % 0.0 in /  0 mm
05:47 8.8 °F /  -12.9 °C 6.1 °F /  -14.4 °C 1023.9 in /  34669.3 hPa WNW 1.6 mph /  2.6 km/h 6.4 mph /  10.3 km/h 83 % 0.0 in /  0 mm
05:52 8.8 °F /  -12.9 °C 6.2 °F /  -14.3 °C 1023.9 in /  34669.3 hPa NNW 3.2 mph /  5.1 km/h 6.4 mph /  10.3 km/h 84 % 0.0 in /  0 mm
05:57 8.8 °F /  -12.9 °C 6.2 °F /  -14.3 °C 1023.9 in /  34669.3 hPa WNW 1.6 mph /  2.6 km/h 4.8 mph /  7.7 km/h 84 % 0.0 in /  0 mm
06:02 8.7 °F /  -12.9 °C 6.1 °F /  -14.4 °C 1023.9 in /  34669.3 hPa Calm   8.0 mph /  12.9 km/h 84 % 0.0 in /  0 mm
06:12 8.6 °F /  -13 °C 6.2 °F /  -14.3 °C 1023.9 in /  34669.3 hPa WNW 1.6 mph /  2.6 km/h 8.0 mph /  12.9 km/h 85 % 0.0 in /  0 mm
06:17 8.4 °F /  -13.1 °C 6.2 °F /  -14.3 °C 1023.9 in /  34669.3 hPa Calm   4.8 mph /  7.7 km/h 86 % 0.0 in /  0 mm
06:22 8.3 °F /  -13.2 °C 6.1 °F /  -14.4 °C 1024.3 in /  34682.8 hPa NW 1.6 mph /  2.6 km/h 4.8 mph /  7.7 km/h 86 % 0.0 in /  0 mm
06:27 8.3 °F /  -13.2 °C 6.3 °F /  -14.3 °C 1024.3 in /  34682.8 hPa WNW 1.6 mph /  2.6 km/h 3.2 mph /  5.1 km/h 87 % 0.0 in /  0 mm
06:32 8.3 °F /  -13.2 °C 6.3 °F /  -14.3 °C 1024.3 in /  34682.8 hPa WNW 1.6 mph /  2.6 km/h 3.2 mph /  5.1 km/h 87 % 0.0 in /  0 mm
06:42 8.3 °F /  -13.2 °C 6.3 °F /  -14.3 °C 1024.3 in /  34682.8 hPa WNW 1.6 mph /  2.6 km/h 6.4 mph /  10.3 km/h 87 % 0.0 in /  0 mm
06:47 8.2 °F /  -13.2 °C 6.2 °F /  -14.3 °C 1024.3 in /  34682.8 hPa West 1.6 mph /  2.6 km/h 4.8 mph /  7.7 km/h 87 % 0.0 in /  0 mm
06:52 8.2 °F /  -13.2 °C 6.2 °F /  -14.3 °C 1024.3 in /  34682.8 hPa WNW 1.6 mph /  2.6 km/h 4.8 mph /  7.7 km/h 87 % 0.0 in /  0 mm
07:02 8.1 °F /  -13.3 °C 6.2 °F /  -14.3 °C 1024.3 in /  34682.8 hPa Calm   4.8 mph /  7.7 km/h 88 % 0.0 in /  0 mm
07:12 8.1 °F /  -13.3 °C 6.2 °F /  -14.3 °C 1024.3 in /  34682.8 hPa Calm   4.8 mph /  7.7 km/h 88 % 0.0 in /  0 mm
07:17 8.1 °F /  -13.3 °C 6.2 °F /  -14.3 °C 1024.6 in /  34693 hPa WNW 1.6 mph /  2.6 km/h 3.2 mph /  5.1 km/h 88 % 0.0 in /  0 mm
07:27 8.1 °F /  -13.3 °C 6.2 °F /  -14.3 °C 1024.6 in /  34693 hPa NW 3.2 mph /  5.1 km/h 4.8 mph /  7.7 km/h 88 % 0.0 in /  0 mm
07:32 8.2 °F /  -13.2 °C 6.2 °F /  -14.3 °C 1024.6 in /  34693 hPa WNW 3.2 mph /  5.1 km/h 4.8 mph /  7.7 km/h 87 % 0.0 in /  0 mm
07:42 8.3 °F /  -13.2 °C 6.1 °F /  -14.4 °C 1024.9 in /  34703.1 hPa WNW 1.6 mph /  2.6 km/h 6.4 mph /  10.3 km/h 86 % 0.0 in /  0 mm
07:52 8.3 °F /  -13.2 °C 5.9 °F /  -14.5 °C 1024.9 in /  34703.1 hPa NW 1.6 mph /  2.6 km/h 8.0 mph /  12.9 km/h 85 % 0.0 in /  0 mm
07:57 8.4 °F /  -13.1 °C 6.0 °F /  -14.4 °C 1024.9 in /  34703.1 hPa Calm   8.0 mph /  12.9 km/h 85 % 0.0 in /  0 mm
08:02 8.4 °F /  -13.1 °C 5.9 °F /  -14.5 °C 1024.9 in /  34703.1 hPa Calm   4.8 mph /  7.7 km/h 84 % 0.0 in /  0 mm
08:12 8.5 °F /  -13.1 °C 5.8 °F /  -14.6 °C 1024.9 in /  34703.1 hPa Calm   6.4 mph /  10.3 km/h 83 % 0.0 in /  0 mm
08:17 8.5 °F /  -13.1 °C 5.8 °F /  -14.6 °C 1024.9 in /  34703.1 hPa Calm   6.4 mph /  10.3 km/h 83 % 0.0 in /  0 mm
08:22 8.6 °F /  -13 °C 5.7 °F /  -14.6 °C 1024.9 in /  34703.1 hPa WNW 1.6 mph /  2.6 km/h 3.2 mph /  5.1 km/h 82 % 0.0 in /  0 mm
08:32 8.6 °F /  -13 °C 5.7 °F /  -14.6 °C 1024.9 in /  34703.1 hPa Calm   3.2 mph /  5.1 km/h 82 % 0.0 in /  0 mm
08:42 8.6 °F /  -13 °C 5.5 °F /  -14.7 °C 1024.9 in /  34703.1 hPa NW 1.6 mph /  2.6 km/h 4.8 mph /  7.7 km/h 81 % 0.0 in /  0 mm
08:47 8.7 °F /  -12.9 °C 5.4 °F /  -14.8 °C 1024.9 in /  34703.1 hPa NW 3.2 mph /  5.1 km/h 6.4 mph /  10.3 km/h 80 % 0.0 in /  0 mm
08:52 8.7 °F /  -12.9 °C 5.3 °F /  -14.8 °C 1024.9 in /  34703.1 hPa NW 1.6 mph /  2.6 km/h 6.4 mph /  10.3 km/h 79 % 0.0 in /  0 mm
08:57 8.7 °F /  -12.9 °C 5.3 °F /  -14.8 °C 1024.9 in /  34703.1 hPa NNW 1.6 mph /  2.6 km/h 6.4 mph /  10.3 km/h 79 % 0.0 in /  0 mm
09:02 8.8 °F /  -12.9 °C 5.5 °F /  -14.7 °C 1025.3 in /  34716.7 hPa WNW 1.6 mph /  2.6 km/h 6.4 mph /  10.3 km/h 80 % 0.0 in /  0 mm
09:12 8.8 °F /  -12.9 °C 5.5 °F /  -14.7 °C 1025.3 in /  34716.7 hPa WNW 4.8 mph /  7.7 km/h 6.4 mph /  10.3 km/h 80 % 0.0 in /  0 mm
09:17 8.8 °F /  -12.9 °C 5.7 °F /  -14.6 °C 1025.3 in /  34716.7 hPa Calm   6.4 mph /  10.3 km/h 81 % 0.0 in /  0 mm
09:22 8.8 °F /  -12.9 °C 5.7 °F /  -14.6 °C 1025.3 in /  34716.7 hPa Calm   6.4 mph /  10.3 km/h 81 % 0.0 in /  0 mm
09:27 8.8 °F /  -12.9 °C 5.7 °F /  -14.6 °C 1024.9 in /  34703.1 hPa WNW 3.2 mph /  5.1 km/h 4.8 mph /  7.7 km/h 81 % 0.0 in /  0 mm
09:32 8.8 °F /  -12.9 °C 5.7 °F /  -14.6 °C 1025.3 in /  34716.7 hPa WNW 3.2 mph /  5.1 km/h 6.4 mph /  10.3 km/h 81 % 0.0 in /  0 mm
09:42 8.9 °F /  -12.8 °C 5.8 °F /  -14.6 °C 1025.3 in /  34716.7 hPa Calm   6.4 mph /  10.3 km/h 81 % 0.0 in /  0 mm
09:52 8.9 °F /  -12.8 °C 5.8 °F /  -14.6 °C 1025.3 in /  34716.7 hPa NNW 1.6 mph /  2.6 km/h 8.0 mph /  12.9 km/h 81 % 0.0 in /  0 mm
09:57 8.9 °F /  -12.8 °C 6.0 °F /  -14.4 °C 1025.3 in /  34716.7 hPa Calm   8.0 mph /  12.9 km/h 82 % 0.0 in /  0 mm
10:02 9.0 °F /  -12.8 °C 6.1 °F /  -14.4 °C 1025.3 in /  34716.7 hPa WNW 3.2 mph /  5.1 km/h 9.7 mph /  15.6 km/h 82 % 0.0 in /  0 mm
10:12 9.1 °F /  -12.7 °C 6.2 °F /  -14.3 °C 1025.3 in /  34716.7 hPa West 3.2 mph /  5.1 km/h 9.7 mph /  15.6 km/h 82 % 0.0 in /  0 mm
10:17 8.9 °F /  -12.8 °C 6.2 °F /  -14.3 °C 1025.3 in /  34716.7 hPa Calm   6.4 mph /  10.3 km/h 83 % 0.0 in /  0 mm
10:22 8.9 °F /  -12.8 °C 6.2 °F /  -14.3 °C 1025.3 in /  34716.7 hPa WNW 3.2 mph /  5.1 km/h 8.0 mph /  12.9 km/h 83 % 0.0 in /  0 mm
10:32 8.9 °F /  -12.8 °C 6.2 °F /  -14.3 °C 1025.3 in /  34716.7 hPa WNW 1.6 mph /  2.6 km/h 8.0 mph /  12.9 km/h 83 % 0.0 in /  0 mm
10:42 8.9 °F /  -12.8 °C 6.3 °F /  -14.3 °C 1025.3 in /  34716.7 hPa West 3.2 mph /  5.1 km/h 8.0 mph /  12.9 km/h 84 % 0.0 in /  0 mm
10:52 9.0 °F /  -12.8 °C 6.4 °F /  -14.2 °C 1025.3 in /  34716.7 hPa WSW 1.6 mph /  2.6 km/h 8.0 mph /  12.9 km/h 84 % 0.0 in /  0 mm
10:57 9.3 °F /  -12.6 °C 6.9 °F /  -13.9 °C 1025.3 in /  34716.7 hPa WNW 1.6 mph /  2.6 km/h 6.4 mph /  10.3 km/h 85 % 0.0 in /  0 mm
11:02 9.4 °F /  -12.6 °C 6.8 °F /  -14 °C 1025.3 in /  34716.7 hPa NW 1.6 mph /  2.6 km/h 6.4 mph /  10.3 km/h 84 % 0.0 in /  0 mm
11:12 9.6 °F /  -12.4 °C 6.7 °F /  -14.1 °C 1025.6 in /  34726.8 hPa WNW 6.4 mph /  10.3 km/h 9.7 mph /  15.6 km/h 82 % 0.0 in /  0 mm
11:17 9.7 °F /  -12.4 °C 6.8 °F /  -14 °C 1025.6 in /  34726.8 hPa WNW 1.6 mph /  2.6 km/h 9.7 mph /  15.6 km/h 82 % 0.0 in /  0 mm
11:22 9.8 °F /  -12.3 °C 6.3 °F /  -14.3 °C 1025.6 in /  34726.8 hPa WNW 9.7 mph /  15.6 km/h 9.7 mph /  15.6 km/h 79 % 0.0 in /  0 mm
11:27 9.8 °F /  -12.3 °C 6.1 °F /  -14.4 °C 1025.6 in /  34726.8 hPa WNW 1.6 mph /  2.6 km/h 14.5 mph /  23.3 km/h 78 % 0.0 in /  0 mm
11:32 9.9 °F /  -12.3 °C 6.1 °F /  -14.4 °C 1025.6 in /  34726.8 hPa WNW 6.4 mph /  10.3 km/h 14.5 mph /  23.3 km/h 77 % 0.0 in /  0 mm
11:37 10.0 °F /  -12.2 °C 5.8 °F /  -14.6 °C 1025.6 in /  34726.8 hPa NNW 6.4 mph /  10.3 km/h 14.5 mph /  23.3 km/h 75 % 0.0 in /  0 mm
11:47 10.2 °F /  -12.1 °C 5.4 °F /  -14.8 °C 1025.3 in /  34716.7 hPa WNW 1.6 mph /  2.6 km/h 14.5 mph /  23.3 km/h 72 % 0.0 in /  0 mm
11:52 10.6 °F /  -11.9 °C 6.0 °F /  -14.4 °C 1025.3 in /  34716.7 hPa WNW 3.2 mph /  5.1 km/h 9.7 mph /  15.6 km/h 73 % 0.0 in /  0 mm
11:57 10.7 °F /  -11.8 °C 5.2 °F /  -14.9 °C 1025.3 in /  34716.7 hPa NW 4.8 mph /  7.7 km/h 9.7 mph /  15.6 km/h 69 % 0.0 in /  0 mm
12:02 10.8 °F /  -11.8 °C 5.3 °F /  -14.8 °C 1025.3 in /  34716.7 hPa NNW 4.8 mph /  7.7 km/h 12.9 mph /  20.8 km/h 69 % 0.0 in /  0 mm
12:07 10.9 °F /  -11.7 °C 5.6 °F /  -14.7 °C 1025.3 in /  34716.7 hPa WNW 9.7 mph /  15.6 km/h 16.1 mph /  25.9 km/h 70 % 0.0 in /  0 mm
12:12 10.8 °F /  -11.8 °C 5.1 °F /  -14.9 °C 1025.6 in /  34726.8 hPa WNW 11.3 mph /  18.2 km/h 19.3 mph /  31.1 km/h 68 % 0.0 in /  0 mm
12:17 10.7 °F /  -11.8 °C 5.2 °F /  -14.9 °C 1025.6 in /  34726.8 hPa WNW 8.0 mph /  12.9 km/h 19.3 mph /  31.1 km/h 69 % 0.0 in /  0 mm
12:22 10.6 °F /  -11.9 °C 5.1 °F /  -14.9 °C 1025.6 in /  34726.8 hPa WNW 6.4 mph /  10.3 km/h 19.3 mph /  31.1 km/h 69 % 0.0 in /  0 mm
12:32 10.7 °F /  -11.8 °C 5.0 °F /  -15 °C 1025.3 in /  34716.7 hPa Calm   17.7 mph /  28.5 km/h 68 % 0.0 in /  0 mm
12:42 10.9 °F /  -11.7 °C 4.4 °F /  -15.3 °C 1025.3 in /  34716.7 hPa WNW 8.0 mph /  12.9 km/h 14.5 mph /  23.3 km/h 64 % 0.0 in /  0 mm
12:47 10.8 °F /  -11.8 °C 4.3 °F /  -15.4 °C 1025.3 in /  34716.7 hPa West 3.2 mph /  5.1 km/h 17.7 mph /  28.5 km/h 64 % 0.0 in /  0 mm
12:52 10.8 °F /  -11.8 °C 3.8 °F /  -15.7 °C 1025.3 in /  34716.7 hPa WNW 6.4 mph /  10.3 km/h 17.7 mph /  28.5 km/h 62 % 0.0 in /  0 mm
12:57 11.3 °F /  -11.5 °C 4.7 °F /  -15.2 °C 1025.3 in /  34716.7 hPa WNW 1.6 mph /  2.6 km/h 17.7 mph /  28.5 km/h 64 % 0.0 in /  0 mm
13:02 11.6 °F /  -11.3 °C 4.1 °F /  -15.5 °C 1025.3 in /  34716.7 hPa NW 12.9 mph /  20.8 km/h 14.5 mph /  23.3 km/h 60 % 0.0 in /  0 mm
13:07 11.2 °F /  -11.6 °C 4.0 °F /  -15.6 °C 1025.3 in /  34716.7 hPa WNW 16.1 mph /  25.9 km/h 19.3 mph /  31.1 km/h 61 % 0.0 in /  0 mm
13:12 11.1 °F /  -11.6 °C 4.3 °F /  -15.4 °C 1025.3 in /  34716.7 hPa WNW 12.9 mph /  20.8 km/h 20.9 mph /  33.6 km/h 63 % 0.0 in /  0 mm
13:17 11.7 °F /  -11.3 °C 4.7 °F /  -15.2 °C 1025.3 in /  34716.7 hPa West 3.2 mph /  5.1 km/h 20.9 mph /  33.6 km/h 62 % 0.0 in /  0 mm
13:22 12.1 °F /  -11.1 °C 4.8 °F /  -15.1 °C 1025.3 in /  34716.7 hPa NW 1.6 mph /  2.6 km/h 20.9 mph /  33.6 km/h 61 % 0.0 in /  0 mm
13:27 12.3 °F /  -10.9 °C 4.5 °F /  -15.3 °C 1024.9 in /  34703.1 hPa NNE 8.0 mph /  12.9 km/h 20.9 mph /  33.6 km/h 59 % 0.0 in /  0 mm
13:32 12.1 °F /  -11.1 °C 4.3 °F /  -15.4 °C 1024.9 in /  34703.1 hPa WNW 11.3 mph /  18.2 km/h 17.7 mph /  28.5 km/h 59 % 0.0 in /  0 mm
13:37 11.8 °F /  -11.2 °C 3.3 °F /  -15.9 °C 1024.9 in /  34703.1 hPa WNW 9.7 mph /  15.6 km/h 17.7 mph /  28.5 km/h 56 % 0.0 in /  0 mm
13:42 11.7 °F /  -11.3 °C 4.4 °F /  -15.3 °C 1025.3 in /  34716.7 hPa West 3.2 mph /  5.1 km/h 17.7 mph /  28.5 km/h 61 % 0.0 in /  0 mm
13:47 11.8 °F /  -11.2 °C 4.0 °F /  -15.6 °C 1025.3 in /  34716.7 hPa WNW 9.7 mph /  15.6 km/h 17.7 mph /  28.5 km/h 59 % 0.0 in /  0 mm
13:52 11.7 °F /  -11.3 °C 3.7 °F /  -15.7 °C 1025.3 in /  34716.7 hPa WNW 8.0 mph /  12.9 km/h 17.7 mph /  28.5 km/h 58 % 0.0 in /  0 mm
13:57 11.8 °F /  -11.2 °C 3.8 °F /  -15.7 °C 1024.9 in /  34703.1 hPa West 8.0 mph /  12.9 km/h 16.1 mph /  25.9 km/h 58 % 0.0 in /  0 mm
14:02 11.8 °F /  -11.2 °C 4.0 °F /  -15.6 °C 1024.9 in /  34703.1 hPa WNW 11.3 mph /  18.2 km/h 16.1 mph /  25.9 km/h 59 % 0.0 in /  0 mm
14:12 12.4 °F /  -10.9 °C 5.1 °F /  -14.9 °C 1024.9 in /  34703.1 hPa North 6.4 mph /  10.3 km/h 16.1 mph /  25.9 km/h 61 % 0.0 in /  0 mm
14:17 12.8 °F /  -10.7 °C 4.2 °F /  -15.4 °C 1024.9 in /  34703.1 hPa WNW 6.4 mph /  10.3 km/h 16.1 mph /  25.9 km/h 56 % 0.0 in /  0 mm
14:22 12.6 °F /  -10.8 °C 3.8 °F /  -15.7 °C 1024.9 in /  34703.1 hPa NNW 6.4 mph /  10.3 km/h 12.9 mph /  20.8 km/h 55 % 0.0 in /  0 mm
14:27 12.3 °F /  -10.9 °C 3.8 °F /  -15.7 °C 1024.9 in /  34703.1 hPa West 4.8 mph /  7.7 km/h 12.9 mph /  20.8 km/h 56 % 0.0 in /  0 mm
14:32 12.1 °F /  -11.1 °C 4.3 °F /  -15.4 °C 1024.9 in /  34703.1 hPa NW 8.0 mph /  12.9 km/h 14.5 mph /  23.3 km/h 59 % 0.0 in /  0 mm
14:37 12.1 °F /  -11.1 °C 4.1 °F /  -15.5 °C 1024.9 in /  34703.1 hPa WNW 1.6 mph /  2.6 km/h 16.1 mph /  25.9 km/h 58 % 0.0 in /  0 mm
14:42 12.2 °F /  -11 °C 4.4 °F /  -15.3 °C 1024.9 in /  34703.1 hPa WNW 3.2 mph /  5.1 km/h 16.1 mph /  25.9 km/h 59 % 0.0 in /  0 mm
14:47 12.2 °F /  -11 °C 3.9 °F /  -15.6 °C 1024.9 in /  34703.1 hPa Calm   16.1 mph /  25.9 km/h 57 % 0.0 in /  0 mm
14:52 12.3 °F /  -10.9 °C 3.8 °F /  -15.7 °C 1024.9 in /  34703.1 hPa North 6.4 mph /  10.3 km/h 11.3 mph /  18.2 km/h 56 % 0.0 in /  0 mm
14:57 12.3 °F /  -10.9 °C 4.3 °F /  -15.4 °C 1024.9 in /  34703.1 hPa NW 9.7 mph /  15.6 km/h 9.7 mph /  15.6 km/h 58 % 0.0 in /  0 mm
15:02 12.2 °F /  -11 °C 4.2 °F /  -15.4 °C 1024.9 in /  34703.1 hPa WNW 12.9 mph /  20.8 km/h 14.5 mph /  23.3 km/h 58 % 0.0 in /  0 mm
15:07 12.2 °F /  -11 °C 4.4 °F /  -15.3 °C 1024.9 in /  34703.1 hPa West 3.2 mph /  5.1 km/h 16.1 mph /  25.9 km/h 59 % 0.0 in /  0 mm
15:12 12.3 °F /  -10.9 °C 4.5 °F /  -15.3 °C 1024.9 in /  34703.1 hPa West 9.7 mph /  15.6 km/h 16.1 mph /  25.9 km/h 59 % 0.0 in /  0 mm
15:17 12.4 °F /  -10.9 °C 4.6 °F /  -15.2 °C 1024.6 in /  34693 hPa NW 1.6 mph /  2.6 km/h 16.1 mph /  25.9 km/h 59 % 0.0 in /  0 mm
15:22 12.7 °F /  -10.7 °C 4.4 °F /  -15.3 °C 1024.6 in /  34693 hPa WNW 6.4 mph /  10.3 km/h 16.1 mph /  25.9 km/h 57 % 0.0 in /  0 mm
15:32 12.6 °F /  -10.8 °C 4.1 °F /  -15.5 °C 1024.6 in /  34693 hPa West 6.4 mph /  10.3 km/h 11.3 mph /  18.2 km/h 56 % 0.0 in /  0 mm
15:37 12.6 °F /  -10.8 °C 4.6 °F /  -15.2 °C 1024.6 in /  34693 hPa NNE 3.2 mph /  5.1 km/h 17.7 mph /  28.5 km/h 58 % 0.0 in /  0 mm
15:47 12.8 °F /  -10.7 °C 4.0 °F /  -15.6 °C 1024.6 in /  34693 hPa NNW 9.7 mph /  15.6 km/h 16.1 mph /  25.9 km/h 55 % 0.0 in /  0 mm
15:52 12.5 °F /  -10.8 °C 4.0 °F /  -15.6 °C 1024.6 in /  34693 hPa WNW 6.4 mph /  10.3 km/h 14.5 mph /  23.3 km/h 56 % 0.0 in /  0 mm
15:57 12.5 °F /  -10.8 °C 4.0 °F /  -15.6 °C 1024.6 in /  34693 hPa WNW 4.8 mph /  7.7 km/h 14.5 mph /  23.3 km/h 56 % 0.0 in /  0 mm
16:02 12.3 °F /  -10.9 °C 4.3 °F /  -15.4 °C 1024.6 in /  34693 hPa North 3.2 mph /  5.1 km/h 12.9 mph /  20.8 km/h 58 % 0.0 in /  0 mm
16:12 12.7 °F /  -10.7 °C 4.4 °F /  -15.3 °C 1024.3 in /  34682.8 hPa West 9.7 mph /  15.6 km/h 12.9 mph /  20.8 km/h 57 % 0.0 in /  0 mm
16:17 13.0 °F /  -10.6 °C 4.4 °F /  -15.3 °C 1024.3 in /  34682.8 hPa NW 8.0 mph /  12.9 km/h 16.1 mph /  25.9 km/h 56 % 0.0 in /  0 mm
16:22 13.1 °F /  -10.5 °C 4.3 °F /  -15.4 °C 1024.3 in /  34682.8 hPa NW 6.4 mph /  10.3 km/h 16.1 mph /  25.9 km/h 55 % 0.0 in /  0 mm
16:27 13.1 °F /  -10.5 °C 4.8 °F /  -15.1 °C 1024.3 in /  34682.8 hPa NNW 8.0 mph /  12.9 km/h 14.5 mph /  23.3 km/h 57 % 0.0 in /  0 mm
16:32 12.9 °F /  -10.6 °C 4.6 °F /  -15.2 °C 1024.3 in /  34682.8 hPa NNW 1.6 mph /  2.6 km/h 16.1 mph /  25.9 km/h 57 % 0.0 in /  0 mm
16:37 12.9 °F /  -10.6 °C 4.3 °F /  -15.4 °C 1024.3 in /  34682.8 hPa WNW 9.7 mph /  15.6 km/h 16.1 mph /  25.9 km/h 56 % 0.0 in /  0 mm
16:42 13.2 °F /  -10.4 °C 4.9 °F /  -15.1 °C 1024.3 in /  34682.8 hPa WNW 4.8 mph /  7.7 km/h 16.1 mph /  25.9 km/h 57 % 0.0 in /  0 mm
16:47 13.0 °F /  -10.6 °C 4.4 °F /  -15.3 °C 1024.3 in /  34682.8 hPa NW 3.2 mph /  5.1 km/h 14.5 mph /  23.3 km/h 56 % 0.0 in /  0 mm
16:52 12.8 °F /  -10.7 °C 4.2 °F /  -15.4 °C 1024.3 in /  34682.8 hPa NNW 9.7 mph /  15.6 km/h 12.9 mph /  20.8 km/h 56 % 0.0 in /  0 mm
16:57 12.8 °F /  -10.7 °C 4.0 °F /  -15.6 °C 1024.3 in /  34682.8 hPa North 6.4 mph /  10.3 km/h 11.3 mph /  18.2 km/h 55 % 0.0 in /  0 mm
17:02 12.8 °F /  -10.7 °C 4.5 °F /  -15.3 °C 1024.3 in /  34682.8 hPa NNW 9.7 mph /  15.6 km/h 11.3 mph /  18.2 km/h 57 % 0.0 in /  0 mm
17:07 12.7 °F /  -10.7 °C 4.1 °F /  -15.5 °C 1024.3 in /  34682.8 hPa NNW 8.0 mph /  12.9 km/h 11.3 mph /  18.2 km/h 56 % 0.0 in /  0 mm
17:12 12.6 °F /  -10.8 °C 4.3 °F /  -15.4 °C 1023.9 in /  34669.3 hPa North 12.9 mph /  20.8 km/h 16.1 mph /  25.9 km/h 57 % 0.0 in /  0 mm
17:17 12.8 °F /  -10.7 °C 4.2 °F /  -15.4 °C 1023.9 in /  34669.3 hPa NW 9.7 mph /  15.6 km/h 17.7 mph /  28.5 km/h 56 % 0.0 in /  0 mm
17:22 12.8 °F /  -10.7 °C 4.2 °F /  -15.4 °C 1023.9 in /  34669.3 hPa Calm   17.7 mph /  28.5 km/h 56 % 0.0 in /  0 mm
17:27 12.8 °F /  -10.7 °C 4.2 °F /  -15.4 °C 1023.9 in /  34669.3 hPa North 4.8 mph /  7.7 km/h 17.7 mph /  28.5 km/h 56 % 0.0 in /  0 mm
17:32 12.7 °F /  -10.7 °C 3.9 °F /  -15.6 °C 1023.9 in /  34669.3 hPa WNW 6.4 mph /  10.3 km/h 17.7 mph /  28.5 km/h 55 % 0.0 in /  0 mm
17:37 12.6 °F /  -10.8 °C 3.8 °F /  -15.7 °C 1023.9 in /  34669.3 hPa NW 3.2 mph /  5.1 km/h 17.7 mph /  28.5 km/h 55 % 0.0 in /  0 mm
17:42 12.6 °F /  -10.8 °C 3.8 °F /  -15.7 °C 1023.9 in /  34669.3 hPa NW 3.2 mph /  5.1 km/h 17.7 mph /  28.5 km/h 55 % 0.0 in /  0 mm
17:47 12.6 °F /  -10.8 °C 3.8 °F /  -15.7 °C 1023.9 in /  34669.3 hPa WNW 4.8 mph /  7.7 km/h 14.5 mph /  23.3 km/h 55 % 0.0 in /  0 mm
17:52 13.2 °F /  -10.4 °C 4.9 °F /  -15.1 °C 1023.9 in /  34669.3 hPa WNW 9.7 mph /  15.6 km/h 14.5 mph /  23.3 km/h 57 % 0.0 in /  0 mm
17:57 13.6 °F /  -10.2 °C 4.2 °F /  -15.4 °C 1023.9 in /  34669.3 hPa WNW 9.7 mph /  15.6 km/h 12.9 mph /  20.8 km/h 53 % 0.0 in /  0 mm
18:02 13.3 °F /  -10.4 °C 3.9 °F /  -15.6 °C 1023.9 in /  34669.3 hPa West 8.0 mph /  12.9 km/h 12.9 mph /  20.8 km/h 53 % 0.0 in /  0 mm
18:12 12.9 °F /  -10.6 °C 3.5 °F /  -15.8 °C 1023.9 in /  34669.3 hPa WNW 12.9 mph /  20.8 km/h 17.7 mph /  28.5 km/h 53 % 0.0 in /  0 mm
18:17 12.8 °F /  -10.7 °C 4.0 °F /  -15.6 °C 1023.9 in /  34669.3 hPa NNW 1.6 mph /  2.6 km/h 17.7 mph /  28.5 km/h 55 % 0.0 in /  0 mm
18:22 12.7 °F /  -10.7 °C 3.6 °F /  -15.8 °C 1023.9 in /  34669.3 hPa North 3.2 mph /  5.1 km/h 16.1 mph /  25.9 km/h 54 % 0.0 in /  0 mm
18:32 12.8 °F /  -10.7 °C 3.7 °F /  -15.7 °C 1023.9 in /  34669.3 hPa NW 12.9 mph /  20.8 km/h 16.1 mph /  25.9 km/h 54 % 0.0 in /  0 mm
18:37 12.7 °F /  -10.7 °C 3.4 °F /  -15.9 °C 1023.9 in /  34669.3 hPa NW 9.7 mph /  15.6 km/h 16.1 mph /  25.9 km/h 53 % 0.0 in /  0 mm
18:47 12.8 °F /  -10.7 °C 3.7 °F /  -15.7 °C 1023.9 in /  34669.3 hPa NNW 6.4 mph /  10.3 km/h 17.7 mph /  28.5 km/h 54 % 0.0 in /  0 mm
18:52 12.7 °F /  -10.7 °C 3.4 °F /  -15.9 °C 1023.9 in /  34669.3 hPa NNW 3.2 mph /  5.1 km/h 17.7 mph /  28.5 km/h 53 % 0.0 in /  0 mm
18:57 12.6 °F /  -10.8 °C 3.5 °F /  -15.8 °C 1023.9 in /  34669.3 hPa NNW 4.8 mph /  7.7 km/h 12.9 mph /  20.8 km/h 54 % 0.0 in /  0 mm
19:02 12.5 °F /  -10.8 °C 3.7 °F /  -15.7 °C 1023.9 in /  34669.3 hPa West 3.2 mph /  5.1 km/h 12.9 mph /  20.8 km/h 55 % 0.0 in /  0 mm
19:07 12.3 °F /  -10.9 °C 3.8 °F /  -15.7 °C 1023.9 in /  34669.3 hPa WNW 9.7 mph /  15.6 km/h 12.9 mph /  20.8 km/h 56 % 0.0 in /  0 mm
19:12 12.3 °F /  -10.9 °C 4.0 °F /  -15.6 °C 1023.9 in /  34669.3 hPa WNW 3.2 mph /  5.1 km/h 14.5 mph /  23.3 km/h 57 % 0.0 in /  0 mm
19:17 12.3 °F /  -10.9 °C 4.0 °F /  -15.6 °C 1023.9 in /  34669.3 hPa WNW 1.6 mph /  2.6 km/h 14.5 mph /  23.3 km/h 57 % 0.0 in /  0 mm
19:22 12.3 °F /  -10.9 °C 4.3 °F /  -15.4 °C 1023.9 in /  34669.3 hPa NW 1.6 mph /  2.6 km/h 14.5 mph /  23.3 km/h 58 % 0.0 in /  0 mm
19:27 12.3 °F /  -10.9 °C 4.0 °F /  -15.6 °C 1023.9 in /  34669.3 hPa NW 3.2 mph /  5.1 km/h 8.0 mph /  12.9 km/h 57 % 0.0 in /  0 mm
19:32 12.3 °F /  -10.9 °C 3.8 °F /  -15.7 °C 1023.9 in /  34669.3 hPa WNW 3.2 mph /  5.1 km/h 9.7 mph /  15.6 km/h 56 % 0.0 in /  0 mm
19:37 12.6 °F /  -10.8 °C 4.3 °F /  -15.4 °C 1023.9 in /  34669.3 hPa NW 9.7 mph /  15.6 km/h 9.7 mph /  15.6 km/h 57 % 0.0 in /  0 mm
19:42 12.9 °F /  -10.6 °C 4.3 °F /  -15.4 °C 1023.9 in /  34669.3 hPa West 3.2 mph /  5.1 km/h 9.7 mph /  15.6 km/h 56 % 0.0 in /  0 mm
19:47 13.1 °F /  -10.5 °C 4.0 °F /  -15.6 °C 1023.9 in /  34669.3 hPa NW 3.2 mph /  5.1 km/h 9.7 mph /  15.6 km/h 54 % 0.0 in /  0 mm
19:52 13.2 °F /  -10.4 °C 3.8 °F /  -15.7 °C 1023.9 in /  34669.3 hPa WNW 11.3 mph /  18.2 km/h 11.3 mph /  18.2 km/h 53 % 0.0 in /  0 mm
19:57 13.1 °F /  -10.5 °C 3.7 °F /  -15.7 °C 1023.9 in /  34669.3 hPa NW 3.2 mph /  5.1 km/h 14.5 mph /  23.3 km/h 53 % 0.0 in /  0 mm
20:02 12.8 °F /  -10.7 °C 3.5 °F /  -15.8 °C 1023.9 in /  34669.3 hPa WNW 1.6 mph /  2.6 km/h 14.5 mph /  23.3 km/h 53 % 0.0 in /  0 mm
20:07 12.6 °F /  -10.8 °C 3.5 °F /  -15.8 °C 1023.9 in /  34669.3 hPa NNW 4.8 mph /  7.7 km/h 14.5 mph /  23.3 km/h 54 % 0.0 in /  0 mm
20:12 12.3 °F /  -10.9 °C 3.5 °F /  -15.8 °C 1023.9 in /  34669.3 hPa WNW 3.2 mph /  5.1 km/h 12.9 mph /  20.8 km/h 55 % 0.0 in /  0 mm
20:17 12.1 °F /  -11.1 °C 3.6 °F /  -15.8 °C 1023.9 in /  34669.3 hPa WNW 3.2 mph /  5.1 km/h 11.3 mph /  18.2 km/h 56 % 0.0 in /  0 mm
20:22 11.8 °F /  -11.2 °C 3.6 °F /  -15.8 °C 1023.9 in /  34669.3 hPa WNW 4.8 mph /  7.7 km/h 6.4 mph /  10.3 km/h 57 % 0.0 in /  0 mm
20:27 11.6 °F /  -11.3 °C 3.6 °F /  -15.8 °C 1023.9 in /  34669.3 hPa WNW 4.8 mph /  7.7 km/h 6.4 mph /  10.3 km/h 58 % 0.0 in /  0 mm
20:32 11.3 °F /  -11.5 °C 3.6 °F /  -15.8 °C 1023.9 in /  34669.3 hPa WNW 1.6 mph /  2.6 km/h 6.4 mph /  10.3 km/h 59 % 0.0 in /  0 mm
20:37 11.2 °F /  -11.6 °C 3.7 °F /  -15.7 °C 1023.9 in /  34669.3 hPa WSW 3.2 mph /  5.1 km/h 6.4 mph /  10.3 km/h 60 % 0.0 in /  0 mm
20:42 11.1 °F /  -11.6 °C 3.9 °F /  -15.6 °C 1023.9 in /  34669.3 hPa WNW 6.4 mph /  10.3 km/h 6.4 mph /  10.3 km/h 61 % 0.0 in /  0 mm
20:47 10.8 °F /  -11.8 °C 3.6 °F /  -15.8 °C 1024.3 in /  34682.8 hPa WNW 4.8 mph /  7.7 km/h 6.4 mph /  10.3 km/h 61 % 0.0 in /  0 mm
20:52 10.6 °F /  -11.9 °C 3.6 °F /  -15.8 °C 1024.3 in /  34682.8 hPa WNW 4.8 mph /  7.7 km/h 6.4 mph /  10.3 km/h 62 % 0.0 in /  0 mm
20:57 10.4 °F /  -12 °C 3.7 °F /  -15.7 °C 1024.3 in /  34682.8 hPa WNW 1.6 mph /  2.6 km/h 6.4 mph /  10.3 km/h 63 % 0.0 in /  0 mm
21:02 10.3 °F /  -12.1 °C 3.8 °F /  -15.7 °C 1024.3 in /  34682.8 hPa WNW 3.2 mph /  5.1 km/h 6.4 mph /  10.3 km/h 64 % 0.0 in /  0 mm
21:07 10.2 °F /  -12.1 °C 3.7 °F /  -15.7 °C 1024.3 in /  34682.8 hPa WNW 1.6 mph /  2.6 km/h 4.8 mph /  7.7 km/h 64 % 0.0 in /  0 mm
21:12 10.2 °F /  -12.1 °C 3.7 °F /  -15.7 °C 1024.3 in /  34682.8 hPa Calm   4.8 mph /  7.7 km/h 64 % 0.0 in /  0 mm
21:17 10.1 °F /  -12.2 °C 3.8 °F /  -15.7 °C 1024.3 in /  34682.8 hPa WNW 1.6 mph /  2.6 km/h 4.8 mph /  7.7 km/h 65 % 0.0 in /  0 mm
21:22 9.8 °F /  -12.3 °C 3.7 °F /  -15.7 °C 1024.3 in /  34682.8 hPa Calm   3.2 mph /  5.1 km/h 66 % 0.0 in /  0 mm
21:27 9.5 °F /  -12.5 °C 3.9 °F /  -15.6 °C 1024.3 in /  34682.8 hPa Calm   1.6 mph /  2.6 km/h 68 % 0.0 in /  0 mm
21:32 9.0 °F /  -12.8 °C 3.8 °F /  -15.7 °C 1024.3 in /  34682.8 hPa Calm   1.6 mph /  2.6 km/h 70 % 0.0 in /  0 mm
21:42 8.2 °F /  -13.2 °C 3.8 °F /  -15.7 °C 1024.3 in /  34682.8 hPa Calm   1.6 mph /  2.6 km/h 74 % 0.0 in /  0 mm
21:47 8.1 °F /  -13.3 °C 3.7 °F /  -15.7 °C 1024.3 in /  34682.8 hPa Calm     74 % 0.0 in /  0 mm
21:52 8.1 °F /  -13.3 °C 3.6 °F /  -15.8 °C 1024.3 in /  34682.8 hPa Calm     73 % 0.0 in /  0 mm
21:57 8.1 °F /  -13.3 °C 3.6 °F /  -15.8 °C 1024.3 in /  34682.8 hPa Calm     73 % 0.0 in /  0 mm
22:02 8.2 °F /  -13.2 °C 3.6 °F /  -15.8 °C 1024.3 in /  34682.8 hPa Calm   1.6 mph /  2.6 km/h 73 % 0.0 in /  0 mm
22:07 8.1 °F /  -13.3 °C 3.6 °F /  -15.8 °C 1024.6 in /  34693 hPa Calm   1.6 mph /  2.6 km/h 73 % 0.0 in /  0 mm
22:12 7.8 °F /  -13.4 °C 3.5 °F /  -15.8 °C 1024.6 in /  34693 hPa Calm   1.6 mph /  2.6 km/h 74 % 0.0 in /  0 mm
22:17 7.5 °F /  -13.6 °C 3.4 °F /  -15.9 °C 1024.3 in /  34682.8 hPa Calm   1.6 mph /  2.6 km/h 75 % 0.0 in /  0 mm
22:22 7.2 °F /  -13.8 °C 3.4 °F /  -15.9 °C 1024.6 in /  34693 hPa Calm   1.6 mph /  2.6 km/h 77 % 0.0 in /  0 mm
22:32 6.9 °F /  -13.9 °C 3.3 °F /  -15.9 °C 1024.6 in /  34693 hPa Calm   1.6 mph /  2.6 km/h 78 % 0.0 in /  0 mm
22:37 7.0 °F /  -13.9 °C 3.4 °F /  -15.9 °C 1024.6 in /  34693 hPa Calm   1.6 mph /  2.6 km/h 78 % 0.0 in /  0 mm
22:42 7.1 °F /  -13.8 °C 3.3 °F /  -15.9 °C 1024.6 in /  34693 hPa Calm   1.6 mph /  2.6 km/h 77 % 0.0 in /  0 mm
22:47 7.1 °F /  -13.8 °C 3.3 °F /  -15.9 °C 1024.6 in /  34693 hPa Calm   1.6 mph /  2.6 km/h 77 % 0.0 in /  0 mm
22:52 7.1 °F /  -13.8 °C 3.3 °F /  -15.9 °C 1024.6 in /  34693 hPa Calm   1.6 mph /  2.6 km/h 77 % 0.0 in /  0 mm
22:57 7.0 °F /  -13.9 °C 3.2 °F /  -16 °C 1024.6 in /  34693 hPa Calm   1.6 mph /  2.6 km/h 77 % 0.0 in /  0 mm
23:02 7.0 °F /  -13.9 °C 3.2 °F /  -16 °C 1024.6 in /  34693 hPa West 1.6 mph /  2.6 km/h 1.6 mph /  2.6 km/h 77 % 0.0 in /  0 mm
23:07 6.9 °F /  -13.9 °C 3.1 °F /  -16.1 °C 1024.6 in /  34693 hPa Calm   1.6 mph /  2.6 km/h 77 % 0.0 in /  0 mm
23:12 6.8 °F /  -14 °C 3.2 °F /  -16 °C 1024.6 in /  34693 hPa Calm   3.2 mph /  5.1 km/h 78 % 0.0 in /  0 mm
23:17 6.8 °F /  -14 °C 3.2 °F /  -16 °C 1024.6 in /  34693 hPa Calm   3.2 mph /  5.1 km/h 78 % 0.0 in /  0 mm
23:22 6.7 °F /  -14.1 °C 3.3 °F /  -15.9 °C 1024.6 in /  34693 hPa Calm   1.6 mph /  2.6 km/h 79 % 0.0 in /  0 mm
23:32 6.9 °F /  -13.9 °C 3.3 °F /  -15.9 °C 1024.6 in /  34693 hPa Calm   1.6 mph /  2.6 km/h 78 % 0.0 in /  0 mm
23:37 7.0 °F /  -13.9 °C 3.4 °F /  -15.9 °C 1024.3 in /  34682.8 hPa Calm   1.6 mph /  2.6 km/h 78 % 0.0 in /  0 mm
23:42 7.1 °F /  -13.8 °C 3.3 °F /  -15.9 °C 1024.6 in /  34693 hPa Calm   1.6 mph /  2.6 km/h 77 % 0.0 in /  0 mm
23:47 7.2 °F /  -13.8 °C 3.6 °F /  -15.8 °C 1024.6 in /  34693 hPa Calm   1.6 mph /  2.6 km/h 78 % 0.0 in /  0 mm
23:52 7.2 °F /  -13.8 °C 3.6 °F /  -15.8 °C 1024.6 in /  34693 hPa Calm   1.6 mph /  2.6 km/h 78 % 0.0 in /  0 mm
23:57 7.1 °F /  -13.8 °C 3.7 °F /  -15.7 °C 1024.3 in /  34682.8 hPa Calm   1.6 mph /  2.6 km/h 79 % 0.0 in /  0 mm
Meteo18
Compliments of Weather Underground - 4 mb

Script developed by  Jim McMurry - jmcmurry@mwt.net Adapted for the template by  Wim van der Kuil - Leuven-Template.eu

You find our weather info also at:

European Weather Network

Weather Underground

Equipment we use:

Weather-station
Davis Vue

Weather-program
Meteobridge

Weather-server
Raspberry PI 2 B+

Provider
1 and 1

Davis Vue

Meteobridge

Raspberry PI 2 B+

1 and 1